createdAt,value
2018-12-21T00:01:21.508Z,8.40
2018-12-21T00:06:30.989Z,8.40
2018-12-21T00:11:40.412Z,8.40
2018-12-21T00:16:50.208Z,8.40
2018-12-21T00:21:59.617Z,8.40
2018-12-21T00:27:09.321Z,8.40
2018-12-21T00:32:24.264Z,8.40
2018-12-21T00:37:39.116Z,8.40
2018-12-21T00:42:54.044Z,8.40
2018-12-21T00:48:03.798Z,8.40
2018-12-21T00:53:13.358Z,8.40
2018-12-21T00:58:23.215Z,8.40
2018-12-21T01:03:32.765Z,8.40
2018-12-21T01:08:42.528Z,8.40
2018-12-21T01:13:52.224Z,8.40
2018-12-21T01:19:02.042Z,8.40
2018-12-21T01:24:11.477Z,8.40
2018-12-21T01:29:21.032Z,8.40
2018-12-21T01:34:30.609Z,8.40
2018-12-21T01:39:40.241Z,8.40
2018-12-21T01:44:49.652Z,8.40
2018-12-21T01:49:59.374Z,8.40
2018-12-21T01:55:09.124Z,8.40
2018-12-21T02:00:18.598Z,8.40
2018-12-21T02:05:28.209Z,8.40
2018-12-21T02:10:38.019Z,8.40
2018-12-21T02:15:47.759Z,8.50
2018-12-21T02:20:57.434Z,8.50
2018-12-21T02:26:06.997Z,8.60
2018-12-21T02:31:16.906Z,8.60
2018-12-21T02:40:11.890Z,8.60
2018-12-21T02:47:43.514Z,8.60
2018-12-21T02:52:53.034Z,8.60
2018-12-21T02:58:02.691Z,8.60
2018-12-21T03:03:12.530Z,8.70
2018-12-21T03:08:22.017Z,8.60
2018-12-21T03:13:31.635Z,8.70
2018-12-21T03:18:41.448Z,8.70
2018-12-21T03:23:51.005Z,8.70
2018-12-21T03:29:00.889Z,8.70
2018-12-21T03:34:10.943Z,8.70
2018-12-21T03:39:20.653Z,8.70
2018-12-21T03:44:30.195Z,8.70
2018-12-21T03:49:39.991Z,8.80
2018-12-21T03:54:49.500Z,8.80
2018-12-21T03:59:59.095Z,8.80
2018-12-21T04:05:08.598Z,8.80
2018-12-21T04:10:18.168Z,8.80
2018-12-21T04:15:27.906Z,8.80
2018-12-21T04:20:37.937Z,8.70
2018-12-21T04:25:47.579Z,8.70
2018-12-21T04:30:57.221Z,8.70
2018-12-21T04:36:07.171Z,8.70
2018-12-21T04:41:16.578Z,8.70
2018-12-21T04:46:25.940Z,8.70
2018-12-21T04:51:35.783Z,8.60
2018-12-21T04:56:45.336Z,8.70
2018-12-21T05:01:54.970Z,8.70
2018-12-21T05:07:12.331Z,8.70
2018-12-21T05:12:16.542Z,8.70
2018-12-21T05:17:26.060Z,8.70
2018-12-21T05:22:36.026Z,8.70
2018-12-21T05:27:45.685Z,8.70
2018-12-21T05:32:55.200Z,8.70
2018-12-21T05:38:04.800Z,8.70
2018-12-21T05:43:14.240Z,8.80
2018-12-21T05:48:23.834Z,8.80
2018-12-21T05:53:33.661Z,8.80
2018-12-21T06:00:46.408Z,8.90
2018-12-21T06:05:55.969Z,8.90
2018-12-21T06:11:05.972Z,8.90
2018-12-21T06:16:15.753Z,8.90
2018-12-21T06:21:25.202Z,8.90
2018-12-21T06:26:35.160Z,9.00
2018-12-21T06:31:44.730Z,9.00
2018-12-21T06:36:54.234Z,9.00
2018-12-21T06:42:04.119Z,9.00
2018-12-21T06:47:15.058Z,9.00
2018-12-21T06:52:24.589Z,9.00
2018-12-21T06:57:35.214Z,9.00
2018-12-21T07:02:45.302Z,9.10
2018-12-21T07:15:09.515Z,9.10
2018-12-21T07:20:19.072Z,9.20
2018-12-21T07:25:28.517Z,9.20
2018-12-21T07:30:38.479Z,9.20
2018-12-21T07:35:48.522Z,9.20
2018-12-21T07:40:58.262Z,9.30
2018-12-21T07:46:08.264Z,9.30
2018-12-21T07:51:19.709Z,9.30
2018-12-21T07:56:29.202Z,9.30
2018-12-21T08:01:39.096Z,9.40
2018-12-21T08:06:48.782Z,9.40
2018-12-21T08:11:58.854Z,9.40
2018-12-21T08:17:08.828Z,9.50
2018-12-21T08:22:18.486Z,9.50
2018-12-21T08:27:28.514Z,9.50
2018-12-21T08:32:38.620Z,9.60
2018-12-21T08:37:48.241Z,9.80
2018-12-21T08:42:58.333Z,9.70
2018-12-21T08:48:08.113Z,9.70
2018-12-21T08:53:17.875Z,9.80
2018-12-21T08:58:27.396Z,9.90
2018-12-21T09:03:37.242Z,9.90
2018-12-21T09:08:47.465Z,10.10
2018-12-21T09:13:57.150Z,10.20
2018-12-21T09:19:07.152Z,10.20
2018-12-21T09:24:17.294Z,10.30
2018-12-21T09:29:26.842Z,10.50
2018-12-21T09:34:36.673Z,10.50
2018-12-21T09:39:46.557Z,10.50
2018-12-21T09:44:56.117Z,10.60
2018-12-21T09:50:08.001Z,10.70
2018-12-21T09:55:17.596Z,10.80
2018-12-21T10:00:27.334Z,10.90
2018-12-21T10:05:37.110Z,10.90
2018-12-21T10:10:46.834Z,11.00
2018-12-21T10:15:56.345Z,10.90
2018-12-21T10:21:05.725Z,11.00
2018-12-21T10:26:15.189Z,11.00
2018-12-21T10:31:24.843Z,11.10
2018-12-21T10:36:34.355Z,11.10
2018-12-21T10:41:43.997Z,11.20
2018-12-21T10:46:53.433Z,11.40
2018-12-21T10:52:03.471Z,11.50
2018-12-21T10:57:13.854Z,11.60
2018-12-21T11:02:23.396Z,11.60
2018-12-21T11:07:33.130Z,11.60
2018-12-21T11:12:42.714Z,11.70
2018-12-21T11:17:52.306Z,11.60
2018-12-21T11:23:01.653Z,11.80
2018-12-21T11:28:11.109Z,11.80
2018-12-21T11:33:20.620Z,11.90
2018-12-21T11:38:30.291Z,11.90
2018-12-21T11:43:39.881Z,12.00
2018-12-21T11:48:49.234Z,11.90
2018-12-21T11:53:58.687Z,12.00
2018-12-21T11:59:08.333Z,12.10
2018-12-21T12:04:17.936Z,12.20
2018-12-21T12:09:27.563Z,12.20
2018-12-21T12:14:37.291Z,12.30
2018-12-21T12:19:46.991Z,12.40
2018-12-21T12:24:56.726Z,12.50
2018-12-21T12:30:07.337Z,12.50
2018-12-21T12:35:16.957Z,12.50
2018-12-21T12:40:26.585Z,12.50
2018-12-21T12:45:36.224Z,12.50
2018-12-21T12:50:46.086Z,12.60
2018-12-21T12:55:55.777Z,12.50
2018-12-21T13:01:05.413Z,12.70
2018-12-21T13:06:15.034Z,12.80
2018-12-21T13:11:24.744Z,13.60
2018-12-21T13:16:34.353Z,13.20
2018-12-21T13:21:44.073Z,13.20
2018-12-21T13:26:54.040Z,13.30
2018-12-21T13:32:03.903Z,13.20
2018-12-21T13:37:13.353Z,13.20
2018-12-21T13:42:23.045Z,13.20
2018-12-21T13:47:32.565Z,13.10
2018-12-21T13:52:42.122Z,13.10
2018-12-21T13:57:51.633Z,13.00
2018-12-21T14:03:01.232Z,13.00
2018-12-21T14:08:10.714Z,13.00
2018-12-21T14:13:20.181Z,13.00
2018-12-21T14:18:29.794Z,13.00
2018-12-21T14:23:39.352Z,12.90
2018-12-21T14:28:49.040Z,12.90
2018-12-21T14:33:58.508Z,12.80
2018-12-21T14:43:29.503Z,12.80
2018-12-21T14:48:39.177Z,12.70
2018-12-21T14:53:48.981Z,12.60
2018-12-21T14:58:58.712Z,12.60
2018-12-21T15:04:08.316Z,12.50
2018-12-21T15:09:18.005Z,12.50
2018-12-21T15:14:27.641Z,12.40
2018-12-21T15:19:37.268Z,12.40
2018-12-21T15:24:46.854Z,12.20
2018-12-21T15:29:56.561Z,12.20
2018-12-21T15:35:06.315Z,12.10
2018-12-21T15:40:15.851Z,12.10
2018-12-21T15:45:25.477Z,12.10
2018-12-21T15:50:35.083Z,12.10
2018-12-21T15:55:44.829Z,12.10
2018-12-21T16:00:54.323Z,12.00
2018-12-21T16:06:04.061Z,12.00
2018-12-21T16:11:13.610Z,12.00
2018-12-21T16:16:23.081Z,12.00
2018-12-21T16:21:32.687Z,11.90
2018-12-21T16:26:42.197Z,11.90
2018-12-21T16:31:51.801Z,11.90
2018-12-21T16:37:01.586Z,12.00
2018-12-21T16:42:11.094Z,11.90
2018-12-21T16:47:20.895Z,11.90
2018-12-21T16:52:30.521Z,11.90
2018-12-21T16:57:39.930Z,11.80
2018-12-21T17:02:49.405Z,11.80
2018-12-21T17:18:05.830Z,11.70
2018-12-21T17:23:15.437Z,11.70
2018-12-21T17:28:24.894Z,11.70
2018-12-21T17:33:34.536Z,11.70
2018-12-21T17:38:44.254Z,11.70
2018-12-21T17:43:53.931Z,11.70
2018-12-21T17:49:03.494Z,11.70
2018-12-21T17:54:13.306Z,11.70
2018-12-21T17:59:22.864Z,11.60
2018-12-21T18:04:32.521Z,11.60
2018-12-21T18:09:42.256Z,11.60
2018-12-21T18:14:51.981Z,11.60
2018-12-21T18:20:01.731Z,11.60
2018-12-21T18:25:22.153Z,11.60
2018-12-21T18:30:37.096Z,11.60
2018-12-21T18:35:46.540Z,11.60
2018-12-21T18:40:56.175Z,11.60
2018-12-21T18:46:05.891Z,11.60
2018-12-21T18:51:15.495Z,11.60
2018-12-21T18:56:27.829Z,11.60
2018-12-21T19:01:37.512Z,11.50
2018-12-21T19:06:46.936Z,11.40
2018-12-21T19:11:56.677Z,11.50
2018-12-21T19:17:06.338Z,11.40
2018-12-21T19:22:15.960Z,11.40
2018-12-21T19:27:25.742Z,11.40
2018-12-21T19:32:36.671Z,11.50
2018-12-21T19:37:46.606Z,11.40
2018-12-21T19:42:56.225Z,11.40
2018-12-21T19:48:05.741Z,11.40
2018-12-21T19:53:15.421Z,11.40
2018-12-21T19:58:25.037Z,11.30
2018-12-21T20:03:34.509Z,11.30
2018-12-21T20:08:44.166Z,11.30
2018-12-21T20:13:54.640Z,11.20
2018-12-21T20:19:04.181Z,11.30
2018-12-21T20:24:13.846Z,11.30
2018-12-21T20:29:23.447Z,11.20
2018-12-21T20:34:34.140Z,11.20
2018-12-21T20:42:37.287Z,11.20
2018-12-21T20:47:46.861Z,11.20
2018-12-21T20:52:56.304Z,11.20
2018-12-21T20:58:12.502Z,11.20
2018-12-21T21:03:22.029Z,11.10
2018-12-21T21:08:31.562Z,11.10
2018-12-21T21:13:41.674Z,11.10
2018-12-21T21:18:51.324Z,11.10
2018-12-21T21:24:01.000Z,11.10
2018-12-21T21:29:10.811Z,11.10
2018-12-21T21:34:21.076Z,11.10
2018-12-21T21:39:30.611Z,11.10
2018-12-21T21:44:40.956Z,11.10
2018-12-21T21:49:50.405Z,11.00
2018-12-21T21:55:00.010Z,11.00
2018-12-21T22:00:12.468Z,11.00
2018-12-21T22:05:22.037Z,11.00
2018-12-21T22:10:32.112Z,11.00
2018-12-21T22:15:41.904Z,10.90
2018-12-21T22:20:51.493Z,11.00
2018-12-21T22:26:01.086Z,11.00
2018-12-21T22:31:11.053Z,11.00
2018-12-21T22:36:20.617Z,11.00
2018-12-21T22:41:30.228Z,11.00
2018-12-21T22:46:39.992Z,10.90
2018-12-21T22:51:49.611Z,10.90
2018-12-21T22:56:59.288Z,10.90
2018-12-21T23:02:08.844Z,11.00
2018-12-21T23:07:18.284Z,10.90
2018-12-21T23:12:27.993Z,10.90
2018-12-21T23:17:37.964Z,10.90
2018-12-21T23:22:47.551Z,10.90
2018-12-21T23:28:04.819Z,10.90
2018-12-21T23:33:08.713Z,10.90
2018-12-21T23:38:18.225Z,10.90
2018-12-21T23:43:27.806Z,10.90
2018-12-21T23:48:37.686Z,10.90
2018-12-21T23:53:47.061Z,10.90
2018-12-21T23:58:56.709Z,10.90
